Airfield :
LOGIN :

Register | Disclaimer

   EN    FR    IT 

 










Legend :    VFR   Marginal VFR   IFR   Intensive IFR   Very Intensive IFR
Visi :
Ceiling :
>= 8 km
>= 3000ft
5 to 8 km
1000 to 3000 ft
1500m to 5 km
500 to 1000 ft
800 to 1500m
200 to 500 ft
< 800m
< 200 ft
Symbols :   Thunderstorms  Fog  Heavy snow  Heavy precipitations  Wind > 20 kt
SIGMETs :     Misc.  Thunderstorms  Icing  Turbulence  Mountain Waves  Volcanic Ashes







- Airport Elevation : 1470 ft


LSMD - Dubendorf Military

CURRENT METAR :
  • 210720Z AUTO 14002KT 1400NDV R11/P2000N R29/1500N BR SCT001 OVC004 07/07 Q1027 RMK

EXPIRED METARs :
  • 210650Z AUTO 00000KT 0600NDV R11/P2000N R29/0800N FG OVC002 07/07 Q1027 RMK
  • 210620Z AUTO 00000KT 0350NDV R11/2000U R29/0400N FG OVC002 07/07 Q1027 RMK
  • 210550Z AUTO 00000KT 0350NDV R11/0375N R29/0400N -SHRA FG VV001 06/06 Q1027 RMK
  • 210520Z AUTO 14002KT 0300NDV R11/0300N R29/0400N -SHRA FG SCT001 06/06 Q1027 RMK
  • 210450Z AUTO 12002KT 0300NDV R11/0075V0325N R29/0350N -RA FG SCT002 07/07 Q1027 RMK

Expired Forecast.
No reported NOTAMs for that airfield.



MET'MAP, your aeronautical weather chart ! - Copyright ORBIFLY December 2007 - Disclaimer

ORBIFLY MET'MAP TEAM :

Programming & Development : Alexandra Zaïnal
Concept & Development : Baudouin d'Aumeries
Co-Development & Prog : Marc-Olivier Méhu
Technical & hardware support : Manuel Goepfert

Contact : metmap@orbifly.com




SOURCES & CREDITS :

   NOAA